sensor_id;sensor_type;location;lat;lon;timestamp;temperature;humidity
7143;DHT22;3613;48.902;9.204;2022-07-04T00:01:33;20.30;99.90
7143;DHT22;3613;48.902;9.204;2022-07-04T00:03:58;20.30;99.90
7143;DHT22;3613;48.902;9.204;2022-07-04T00:06:24;20.30;99.90
7143;DHT22;3613;48.902;9.204;2022-07-04T00:08:50;20.40;99.90
7143;DHT22;3613;48.902;9.204;2022-07-04T00:11:16;20.40;99.90
7143;DHT22;3613;48.902;9.204;2022-07-04T00:13:41;20.40;99.90
7143;DHT22;3613;48.902;9.204;2022-07-04T00:16:07;20.40;99.90
7143;DHT22;3613;48.902;9.204;2022-07-04T00:18:33;20.40;99.90
7143;DHT22;3613;48.902;9.204;2022-07-04T00:21:01;20.30;99.90
7143;DHT22;3613;48.902;9.204;2022-07-04T00:23:29;20.30;99.90
7143;DHT22;3613;48.902;9.204;2022-07-04T00:25:54;20.30;99.90
7143;DHT22;3613;48.902;9.204;2022-07-04T00:28:20;20.40;99.90
7143;DHT22;3613;48.902;9.204;2022-07-04T00:30:45;20.40;99.90
7143;DHT22;3613;48.902;9.204;2022-07-04T00:33:12;20.50;99.90
7143;DHT22;3613;48.902;9.204;2022-07-04T00:35:41;20.50;99.90
7143;DHT22;3613;48.902;9.204;2022-07-04T00:38:09;20.50;99.90
7143;DHT22;3613;48.902;9.204;2022-07-04T00:40:37;20.50;99.90
7143;DHT22;3613;48.902;9.204;2022-07-04T00:43:06;20.50;99.90
7143;DHT22;3613;48.902;9.204;2022-07-04T00:45:31;20.50;99.90
7143;DHT22;3613;48.902;9.204;2022-07-04T00:47:59;20.50;99.90
7143;DHT22;3613;48.902;9.204;2022-07-04T00:50:25;20.60;99.90
7143;DHT22;3613;48.902;9.204;2022-07-04T00:52:52;20.50;99.90
7143;DHT22;3613;48.902;9.204;2022-07-04T00:55:19;20.50;99.90
7143;DHT22;3613;48.902;9.204;2022-07-04T00:57:47;20.40;99.90
7143;DHT22;3613;48.902;9.204;2022-07-04T01:00:13;20.40;99.90
7143;DHT22;3613;48.902;9.204;2022-07-04T01:02:38;20.30;99.90
7143;DHT22;3613;48.902;9.204;2022-07-04T01:05:04;20.30;99.90
7143;DHT22;3613;48.902;9.204;2022-07-04T01:07:32;20.20;99.90
7143;DHT22;3613;48.902;9.204;2022-07-04T01:10:00;20.10;99.90
7143;DHT22;3613;48.902;9.204;2022-07-04T01:12:28;20.00;99.90
7143;DHT22;3613;48.902;9.204;2022-07-04T01:14:54;20.00;99.90
7143;DHT22;3613;48.902;9.204;2022-07-04T01:17:20;19.90;99.90
7143;DHT22;3613;48.902;9.204;2022-07-04T01:19:45;20.00;99.90
7143;DHT22;3613;48.902;9.204;2022-07-04T01:22:13;19.90;99.90
7143;DHT22;3613;48.902;9.204;2022-07-04T01:24:40;19.90;99.90
7143;DHT22;3613;48.902;9.204;2022-07-04T01:27:06;19.80;99.90
7143;DHT22;3613;48.902;9.204;2022-07-04T01:29:32;19.70;99.90
7143;DHT22;3613;48.902;9.204;2022-07-04T01:32:04;19.70;99.90
7143;DHT22;3613;48.902;9.204;2022-07-04T01:34:30;19.70;99.90
7143;DHT22;3613;48.902;9.204;2022-07-04T01:36:55;19.70;99.90
7143;DHT22;3613;48.902;9.204;2022-07-04T01:39:21;19.60;99.90
7143;DHT22;3613;48.902;9.204;2022-07-04T01:41:46;19.60;99.90
7143;DHT22;3613;48.902;9.204;2022-07-04T01:44:12;19.60;99.90
7143;DHT22;3613;48.902;9.204;2022-07-04T01:46:38;19.50;99.90
7143;DHT22;3613;48.902;9.204;2022-07-04T01:49:05;19.50;99.90
7143;DHT22;3613;48.902;9.204;2022-07-04T01:51:31;19.50;99.90
7143;DHT22;3613;48.902;9.204;2022-07-04T01:53:59;19.50;99.90
7143;DHT22;3613;48.902;9.204;2022-07-04T01:56:25;19.40;99.90
7143;DHT22;3613;48.902;9.204;2022-07-04T01:58:50;19.40;99.90
7143;DHT22;3613;48.902;9.204;2022-07-04T02:01:16;19.40;99.90
7143;DHT22;3613;48.902;9.204;2022-07-04T02:04:02;19.30;99.90
7143;DHT22;3613;48.902;9.204;2022-07-04T02:06:29;19.30;99.90
7143;DHT22;3613;48.902;9.204;2022-07-04T02:08:55;19.20;99.90
7143;DHT22;3613;48.902;9.204;2022-07-04T02:11:39;19.20;99.90
7143;DHT22;3613;48.902;9.204;2022-07-04T02:14:23;19.20;99.90
7143;DHT22;3613;48.902;9.204;2022-07-04T02:16:49;19.10;99.90
7143;DHT22;3613;48.902;9.204;2022-07-04T02:19:15;19.10;99.90
7143;DHT22;3613;48.902;9.204;2022-07-04T02:21:41;19.00;99.90
7143;DHT22;3613;48.902;9.204;2022-07-04T02:24:09;19.00;99.90
7143;DHT22;3613;48.902;9.204;2022-07-04T02:26:35;18.90;99.90
7143;DHT22;3613;48.902;9.204;2022-07-04T02:29:01;18.80;99.90
7143;DHT22;3613;48.902;9.204;2022-07-04T02:31:26;18.80;99.90
7143;DHT22;3613;48.902;9.204;2022-07-04T02:33:52;18.80;99.90
7143;DHT22;3613;48.902;9.204;2022-07-04T02:36:20;18.70;99.90
7143;DHT22;3613;48.902;9.204;2022-07-04T02:38:46;18.60;99.90
7143;DHT22;3613;48.902;9.204;2022-07-04T02:41:11;18.60;99.90
7143;DHT22;3613;48.902;9.204;2022-07-04T02:43:39;18.60;99.90
7143;DHT22;3613;48.902;9.204;2022-07-04T02:46:05;18.50;99.90
7143;DHT22;3613;48.902;9.204;2022-07-04T02:48:30;18.50;99.90
7143;DHT22;3613;48.902;9.204;2022-07-04T02:50:56;18.50;99.90
7143;DHT22;3613;48.902;9.204;2022-07-04T02:53:22;18.50;99.90
7143;DHT22;3613;48.902;9.204;2022-07-04T02:55:47;18.50;99.90
7143;DHT22;3613;48.902;9.204;2022-07-04T02:58:13;18.50;99.90
7143;DHT22;3613;48.902;9.204;2022-07-04T03:00:41;18.50;99.90
7143;DHT22;3613;48.902;9.204;2022-07-04T03:03:06;18.50;99.90
7143;DHT22;3613;48.902;9.204;2022-07-04T03:05:32;18.50;99.90
7143;DHT22;3613;48.902;9.204;2022-07-04T03:07:58;18.40;99.90
7143;DHT22;3613;48.902;9.204;2022-07-04T03:10:23;18.30;99.90
7143;DHT22;3613;48.902;9.204;2022-07-04T03:12:49;18.20;99.90
7143;DHT22;3613;48.902;9.204;2022-07-04T03:15:14;18.20;99.90
7143;DHT22;3613;48.902;9.204;2022-07-04T03:17:42;18.20;99.90
7143;DHT22;3613;48.902;9.204;2022-07-04T03:20:08;18.10;99.90
7143;DHT22;3613;48.902;9.204;2022-07-04T03:22:34;18.10;99.90
7143;DHT22;3613;48.902;9.204;2022-07-04T03:25:02;18.00;99.90
7143;DHT22;3613;48.902;9.204;2022-07-04T03:27:28;17.90;99.90
7143;DHT22;3613;48.902;9.204;2022-07-04T03:29:53;17.90;99.90
7143;DHT22;3613;48.902;9.204;2022-07-04T03:32:19;17.80;99.90
7143;DHT22;3613;48.902;9.204;2022-07-04T03:34:44;17.80;99.90
7143;DHT22;3613;48.902;9.204;2022-07-04T03:37:10;17.70;99.90
7143;DHT22;3613;48.902;9.204;2022-07-04T03:39:36;17.70;99.90
7143;DHT22;3613;48.902;9.204;2022-07-04T03:42:01;17.70;99.90
7143;DHT22;3613;48.902;9.204;2022-07-04T03:44:27;17.70;99.90
7143;DHT22;3613;48.902;9.204;2022-07-04T03:46:55;17.80;99.90
7143;DHT22;3613;48.902;9.204;2022-07-04T03:49:24;18.00;99.90
7143;DHT22;3613;48.902;9.204;2022-07-04T03:51:50;18.10;99.90
7143;DHT22;3613;48.902;9.204;2022-07-04T03:54:18;18.10;99.90
7143;DHT22;3613;48.902;9.204;2022-07-04T03:56:46;18.10;99.90
7143;DHT22;3613;48.902;9.204;2022-07-04T03:59:11;18.10;99.90
7143;DHT22;3613;48.902;9.204;2022-07-04T04:01:39;18.10;99.90
7143;DHT22;3613;48.902;9.204;2022-07-04T04:04:06;18.10;99.90
7143;DHT22;3613;48.902;9.204;2022-07-04T04:06:50;18.10;99.90
7143;DHT22;3613;48.902;9.204;2022-07-04T04:09:18;18.20;99.90
7143;DHT22;3613;48.902;9.204;2022-07-04T04:11:44;18.30;99.90
7143;DHT22;3613;48.902;9.204;2022-07-04T04:14:11;18.50;99.90
7143;DHT22;3613;48.902;9.204;2022-07-04T04:16:37;18.70;99.90
7143;DHT22;3613;48.902;9.204;2022-07-04T04:19:06;19.10;99.90
7143;DHT22;3613;48.902;9.204;2022-07-04T04:21:32;19.30;99.90
7143;DHT22;3613;48.902;9.204;2022-07-04T04:24:00;19.50;99.90
7143;DHT22;3613;48.902;9.204;2022-07-04T04:26:26;19.30;99.90
7143;DHT22;3613;48.902;9.204;2022-07-04T04:28:52;19.30;99.90
7143;DHT22;3613;48.902;9.204;2022-07-04T04:31:17;19.20;99.90
7143;DHT22;3613;48.902;9.204;2022-07-04T04:33:45;19.30;99.90
7143;DHT22;3613;48.902;9.204;2022-07-04T04:36:11;19.50;99.90
7143;DHT22;3613;48.902;9.204;2022-07-04T04:38:39;19.60;99.90
7143;DHT22;3613;48.902;9.204;2022-07-04T04:41:04;19.70;99.90
7143;DHT22;3613;48.902;9.204;2022-07-04T04:43:30;19.80;99.90
7143;DHT22;3613;48.902;9.204;2022-07-04T04:45:56;20.10;99.90
7143;DHT22;3613;48.902;9.204;2022-07-04T04:48:21;20.50;99.90
7143;DHT22;3613;48.902;9.204;2022-07-04T04:50:49;20.70;99.90
7143;DHT22;3613;48.902;9.204;2022-07-04T04:53:17;21.00;99.90
7143;DHT22;3613;48.902;9.204;2022-07-04T04:55:45;21.30;99.90
7143;DHT22;3613;48.902;9.204;2022-07-04T04:58:13;21.20;99.90
7143;DHT22;3613;48.902;9.204;2022-07-04T05:00:39;21.50;99.90
7143;DHT22;3613;48.902;9.204;2022-07-04T05:03:04;21.90;99.90
7143;DHT22;3613;48.902;9.204;2022-07-04T05:05:30;22.00;99.90
7143;DHT22;3613;48.902;9.204;2022-07-04T05:07:56;22.10;99.90
7143;DHT22;3613;48.902;9.204;2022-07-04T05:10:22;22.20;99.90
7143;DHT22;3613;48.902;9.204;2022-07-04T05:12:50;22.50;99.90
7143;DHT22;3613;48.902;9.204;2022-07-04T05:15:15;23.00;99.90
7143;DHT22;3613;48.902;9.204;2022-07-04T05:17:41;23.30;99.90
7143;DHT22;3613;48.902;9.204;2022-07-04T05:20:07;23.50;99.90
7143;DHT22;3613;48.902;9.204;2022-07-04T05:22:33;23.30;99.90
7143;DHT22;3613;48.902;9.204;2022-07-04T05:24:59;23.40;99.90
7143;DHT22;3613;48.902;9.204;2022-07-04T05:27:26;23.90;99.90
7143;DHT22;3613;48.902;9.204;2022-07-04T05:29:52;24.30;99.90
7143;DHT22;3613;48.902;9.204;2022-07-04T05:32:20;25.10;99.90
7143;DHT22;3613;48.902;9.204;2022-07-04T05:34:48;25.70;99.90
7143;DHT22;3613;48.902;9.204;2022-07-04T05:37:13;26.40;99.90
7143;DHT22;3613;48.902;9.204;2022-07-04T05:39:39;26.80;99.90
7143;DHT22;3613;48.902;9.204;2022-07-04T05:42:05;27.00;99.90
7143;DHT22;3613;48.902;9.204;2022-07-04T05:44:31;26.80;99.90
7143;DHT22;3613;48.902;9.204;2022-07-04T05:46:56;26.40;99.90
7143;DHT22;3613;48.902;9.204;2022-07-04T05:49:25;26.50;99.90
7143;DHT22;3613;48.902;9.204;2022-07-04T05:51:55;27.10;99.90
7143;DHT22;3613;48.902;9.204;2022-07-04T05:54:23;27.90;99.90
7143;DHT22;3613;48.902;9.204;2022-07-04T05:56:48;28.70;99.50
7143;DHT22;3613;48.902;9.204;2022-07-04T05:59:14;29.40;96.50
7143;DHT22;3613;48.902;9.204;2022-07-04T06:01:39;30.10;94.90
7143;DHT22;3613;48.902;9.204;2022-07-04T06:04:08;30.50;93.50
7143;DHT22;3613;48.902;9.204;2022-07-04T06:06:33;30.40;93.00
7143;DHT22;3613;48.902;9.204;2022-07-04T06:09:00;30.10;92.40
7143;DHT22;3613;48.902;9.204;2022-07-04T06:11:26;28.90;93.20
7143;DHT22;3613;48.902;9.204;2022-07-04T06:13:51;28.40;94.90
7143;DHT22;3613;48.902;9.204;2022-07-04T06:16:17;28.00;95.00
7143;DHT22;3613;48.902;9.204;2022-07-04T06:18:43;27.20;95.80
7143;DHT22;3613;48.902;9.204;2022-07-04T06:21:13;26.80;96.70
7143;DHT22;3613;48.902;9.204;2022-07-04T06:23:39;26.20;98.10
7143;DHT22;3613;48.902;9.204;2022-07-04T06:26:09;25.90;99.70
7143;DHT22;3613;48.902;9.204;2022-07-04T06:28:35;25.80;99.90
7143;DHT22;3613;48.902;9.204;2022-07-04T06:31:01;25.60;99.90
7143;DHT22;3613;48.902;9.204;2022-07-04T06:33:29;25.70;99.90
7143;DHT22;3613;48.902;9.204;2022-07-04T06:35:57;26.10;99.90
7143;DHT22;3613;48.902;9.204;2022-07-04T06:38:29;26.00;99.90
7143;DHT22;3613;48.902;9.204;2022-07-04T06:41:01;25.60;99.90
7143;DHT22;3613;48.902;9.204;2022-07-04T06:43:27;25.80;99.90
7143;DHT22;3613;48.902;9.204;2022-07-04T06:45:53;26.70;99.90
7143;DHT22;3613;48.902;9.204;2022-07-04T06:48:19;27.70;98.30
7143;DHT22;3613;48.902;9.204;2022-07-04T06:50:45;27.60;97.50
7143;DHT22;3613;48.902;9.204;2022-07-04T06:53:13;27.00;97.40
7143;DHT22;3613;48.902;9.204;2022-07-04T06:55:42;26.50;99.00
7143;DHT22;3613;48.902;9.204;2022-07-04T06:58:10;26.20;99.90
7143;DHT22;3613;48.902;9.204;2022-07-04T07:00:36;26.10;99.90
7143;DHT22;3613;48.902;9.204;2022-07-04T07:03:02;26.10;99.90
7143;DHT22;3613;48.902;9.204;2022-07-04T07:05:33;26.60;99.80
7143;DHT22;3613;48.902;9.204;2022-07-04T07:08:04;26.50;99.60
7143;DHT22;3613;48.902;9.204;2022-07-04T07:10:30;26.50;99.50
7143;DHT22;3613;48.902;9.204;2022-07-04T07:13:01;26.40;99.90
7143;DHT22;3613;48.902;9.204;2022-07-04T07:15:27;26.50;99.90
7143;DHT22;3613;48.902;9.204;2022-07-04T07:17:53;26.70;99.90
7143;DHT22;3613;48.902;9.204;2022-07-04T07:20:20;26.60;99.90
7143;DHT22;3613;48.902;9.204;2022-07-04T07:22:46;26.60;99.90
7143;DHT22;3613;48.902;9.204;2022-07-04T07:25:12;26.50;99.90
7143;DHT22;3613;48.902;9.204;2022-07-04T07:27:40;26.50;99.90
7143;DHT22;3613;48.902;9.204;2022-07-04T07:30:07;26.50;99.90
7143;DHT22;3613;48.902;9.204;2022-07-04T07:32:36;26.40;99.90
7143;DHT22;3613;48.902;9.204;2022-07-04T07:35:02;26.40;99.90
7143;DHT22;3613;48.902;9.204;2022-07-04T07:37:30;26.40;99.90
7143;DHT22;3613;48.902;9.204;2022-07-04T07:39:55;25.70;99.90
7143;DHT22;3613;48.902;9.204;2022-07-04T07:42:23;25.50;99.90
7143;DHT22;3613;48.902;9.204;2022-07-04T07:44:49;25.40;99.90
7143;DHT22;3613;48.902;9.204;2022-07-04T07:47:17;25.10;99.90
7143;DHT22;3613;48.902;9.204;2022-07-04T07:49:46;25.00;99.90
7143;DHT22;3613;48.902;9.204;2022-07-04T07:52:13;24.70;99.90
7143;DHT22;3613;48.902;9.204;2022-07-04T07:54:39;24.30;99.90
7143;DHT22;3613;48.902;9.204;2022-07-04T07:57:05;24.20;99.90
7143;DHT22;3613;48.902;9.204;2022-07-04T07:59:33;24.10;99.90
7143;DHT22;3613;48.902;9.204;2022-07-04T08:02:01;24.50;99.90
7143;DHT22;3613;48.902;9.204;2022-07-04T08:04:29;24.50;99.90
7143;DHT22;3613;48.902;9.204;2022-07-04T08:07:06;24.60;99.90
7143;DHT22;3613;48.902;9.204;2022-07-04T08:09:35;24.70;99.90
7143;DHT22;3613;48.902;9.204;2022-07-04T08:12:04;24.70;99.90
7143;DHT22;3613;48.902;9.204;2022-07-04T08:14:33;24.80;99.90
7143;DHT22;3613;48.902;9.204;2022-07-04T08:16:59;24.80;99.90
7143;DHT22;3613;48.902;9.204;2022-07-04T08:19:28;25.00;99.90
7143;DHT22;3613;48.902;9.204;2022-07-04T08:21:55;24.90;99.90
7143;DHT22;3613;48.902;9.204;2022-07-04T08:24:21;24.80;99.90
7143;DHT22;3613;48.902;9.204;2022-07-04T08:26:47;24.90;99.90
7143;DHT22;3613;48.902;9.204;2022-07-04T08:29:19;24.90;99.90
7143;DHT22;3613;48.902;9.204;2022-07-04T08:31:46;25.20;99.90
7143;DHT22;3613;48.902;9.204;2022-07-04T08:34:14;25.50;99.90
7143;DHT22;3613;48.902;9.204;2022-07-04T08:36:42;25.90;99.90
7143;DHT22;3613;48.902;9.204;2022-07-04T08:39:08;25.60;99.90
7143;DHT22;3613;48.902;9.204;2022-07-04T08:41:39;25.60;99.90
7143;DHT22;3613;48.902;9.204;2022-07-04T08:44:10;25.90;99.90
7143;DHT22;3613;48.902;9.204;2022-07-04T08:46:41;26.40;99.90
7143;DHT22;3613;48.902;9.204;2022-07-04T08:49:21;26.60;99.90
7143;DHT22;3613;48.902;9.204;2022-07-04T08:54:24;26.80;99.90
7143;DHT22;3613;48.902;9.204;2022-07-04T08:57:12;26.20;99.90
7143;DHT22;3613;48.902;9.204;2022-07-04T08:59:59;26.30;99.90
7143;DHT22;3613;48.902;9.204;2022-07-04T09:02:29;26.40;99.90
7143;DHT22;3613;48.902;9.204;2022-07-04T09:04:55;26.60;99.90
7143;DHT22;3613;48.902;9.204;2022-07-04T09:07:21;26.70;99.90
7143;DHT22;3613;48.902;9.204;2022-07-04T09:09:50;26.90;99.90
7143;DHT22;3613;48.902;9.204;2022-07-04T09:12:16;27.40;99.90
7143;DHT22;3613;48.902;9.204;2022-07-04T09:14:42;28.00;99.80
7143;DHT22;3613;48.902;9.204;2022-07-04T09:17:08;28.70;98.90
7143;DHT22;3613;48.902;9.204;2022-07-04T09:19:34;29.50;96.40
7143;DHT22;3613;48.902;9.204;2022-07-04T09:22:04;29.80;95.10
7143;DHT22;3613;48.902;9.204;2022-07-04T09:24:52;29.40;95.10
7143;DHT22;3613;48.902;9.204;2022-07-04T09:27:38;28.50;95.70
7143;DHT22;3613;48.902;9.204;2022-07-04T09:30:08;27.60;97.30
7143;DHT22;3613;48.902;9.204;2022-07-04T09:32:38;28.20;97.70
7143;DHT22;3613;48.902;9.204;2022-07-04T09:35:18;29.00;95.90
7143;DHT22;3613;48.902;9.204;2022-07-04T09:37:48;28.90;95.40
7143;DHT22;3613;48.902;9.204;2022-07-04T09:40:35;28.70;95.30
7143;DHT22;3613;48.902;9.204;2022-07-04T09:43:24;28.50;96.00
7143;DHT22;3613;48.902;9.204;2022-07-04T09:45:58;29.50;94.90
7143;DHT22;3613;48.902;9.204;2022-07-04T09:48:24;29.40;94.30
7143;DHT22;3613;48.902;9.204;2022-07-04T09:50:50;30.00;93.50
7143;DHT22;3613;48.902;9.204;2022-07-04T09:53:18;30.10;93.50
7143;DHT22;3613;48.902;9.204;2022-07-04T09:55:46;30.00;92.60
7143;DHT22;3613;48.902;9.204;2022-07-04T09:58:15;30.10;92.00
7143;DHT22;3613;48.902;9.204;2022-07-04T10:00:45;29.70;92.60
7143;DHT22;3613;48.902;9.204;2022-07-04T10:03:35;29.50;92.70
7143;DHT22;3613;48.902;9.204;2022-07-04T10:06:13;29.80;92.20
7143;DHT22;3613;48.902;9.204;2022-07-04T10:08:42;30.10;91.10
7143;DHT22;3613;48.902;9.204;2022-07-04T10:11:11;30.10;88.80
7143;DHT22;3613;48.902;9.204;2022-07-04T10:13:40;30.60;88.10
7143;DHT22;3613;48.902;9.204;2022-07-04T10:16:06;30.40;90.30
7143;DHT22;3613;48.902;9.204;2022-07-04T10:18:33;30.50;86.00
7143;DHT22;3613;48.902;9.204;2022-07-04T10:21:00;30.80;85.80
7143;DHT22;3613;48.902;9.204;2022-07-04T10:23:26;30.80;84.70
7143;DHT22;3613;48.902;9.204;2022-07-04T10:25:57;30.90;85.50
7143;DHT22;3613;48.902;9.204;2022-07-04T10:28:28;30.40;82.50
7143;DHT22;3613;48.902;9.204;2022-07-04T10:30:57;29.70;85.10
7143;DHT22;3613;48.902;9.204;2022-07-04T10:33:26;30.10;85.90
7143;DHT22;3613;48.902;9.204;2022-07-04T10:38:31;30.20;84.90
7143;DHT22;3613;48.902;9.204;2022-07-04T10:41:07;30.00;84.70
7143;DHT22;3613;48.902;9.204;2022-07-04T10:54:21;32.00;81.40
7143;DHT22;3613;48.902;9.204;2022-07-04T10:56:53;32.30;80.50
7143;DHT22;3613;48.902;9.204;2022-07-04T10:59:27;32.60;79.60
7143;DHT22;3613;48.902;9.204;2022-07-04T11:17:55;31.60;76.80
7143;DHT22;3613;48.902;9.204;2022-07-04T11:20:23;31.10;78.20
7143;DHT22;3613;48.902;9.204;2022-07-04T11:22:49;31.10;78.20
7143;DHT22;3613;48.902;9.204;2022-07-04T11:25:15;31.00;78.90
7143;DHT22;3613;48.902;9.204;2022-07-04T11:27:41;31.10;79.80
7143;DHT22;3613;48.902;9.204;2022-07-04T11:30:11;30.90;79.20
7143;DHT22;3613;48.902;9.204;2022-07-04T11:32:38;30.70;79.10
7143;DHT22;3613;48.902;9.204;2022-07-04T11:35:07;30.30;80.00
7143;DHT22;3613;48.902;9.204;2022-07-04T11:37:33;30.40;79.70
7143;DHT22;3613;48.902;9.204;2022-07-04T11:39:59;30.80;80.10
7143;DHT22;3613;48.902;9.204;2022-07-04T11:43:08;31.40;79.50
7143;DHT22;3613;48.902;9.204;2022-07-04T11:46:12;32.20;79.50
7143;DHT22;3613;48.902;9.204;2022-07-04T11:48:38;33.40;76.60
7143;DHT22;3613;48.902;9.204;2022-07-04T11:51:18;34.00;73.90
7143;DHT22;3613;48.902;9.204;2022-07-04T11:53:44;34.30;73.30
7143;DHT22;3613;48.902;9.204;2022-07-04T11:56:09;34.70;73.20
7143;DHT22;3613;48.902;9.204;2022-07-04T11:58:46;34.20;73.00
7143;DHT22;3613;48.902;9.204;2022-07-04T12:01:26;34.00;74.00
7143;DHT22;3613;48.902;9.204;2022-07-04T12:03:54;33.20;72.50
7143;DHT22;3613;48.902;9.204;2022-07-04T12:06:20;32.80;74.00
7143;DHT22;3613;48.902;9.204;2022-07-04T12:08:47;32.90;73.80
7143;DHT22;3613;48.902;9.204;2022-07-04T12:11:12;33.00;74.20
7143;DHT22;3613;48.902;9.204;2022-07-04T12:13:38;33.10;74.00
7143;DHT22;3613;48.902;9.204;2022-07-04T12:16:11;32.40;74.80
7143;DHT22;3613;48.902;9.204;2022-07-04T12:18:36;31.60;76.20
7143;DHT22;3613;48.902;9.204;2022-07-04T12:21:17;31.90;76.60
7143;DHT22;3613;48.902;9.204;2022-07-04T12:23:51;32.30;74.40
7143;DHT22;3613;48.902;9.204;2022-07-04T12:26:20;32.60;73.80
7143;DHT22;3613;48.902;9.204;2022-07-04T12:28:45;32.50;74.40
7143;DHT22;3613;48.902;9.204;2022-07-04T12:31:14;32.50;75.90
7143;DHT22;3613;48.902;9.204;2022-07-04T12:33:40;32.90;75.50
7143;DHT22;3613;48.902;9.204;2022-07-04T12:36:21;33.60;72.90
7143;DHT22;3613;48.902;9.204;2022-07-04T12:38:49;33.90;72.40
7143;DHT22;3613;48.902;9.204;2022-07-04T12:41:17;34.40;71.40
7143;DHT22;3613;48.902;9.204;2022-07-04T12:43:54;35.30;70.40
7143;DHT22;3613;48.902;9.204;2022-07-04T12:46:33;35.80;70.60
7143;DHT22;3613;48.902;9.204;2022-07-04T12:49:02;35.90;69.40
7143;DHT22;3613;48.902;9.204;2022-07-04T12:51:30;35.60;68.40
7143;DHT22;3613;48.902;9.204;2022-07-04T12:54:07;35.50;69.60
7143;DHT22;3613;48.902;9.204;2022-07-04T12:56:48;35.60;68.50
7143;DHT22;3613;48.902;9.204;2022-07-04T12:59:17;35.50;67.70
7143;DHT22;3613;48.902;9.204;2022-07-04T13:01:46;35.40;68.50
7143;DHT22;3613;48.902;9.204;2022-07-04T13:04:13;34.60;68.20
7143;DHT22;3613;48.902;9.204;2022-07-04T13:06:39;34.40;69.80
7143;DHT22;3613;48.902;9.204;2022-07-04T13:09:06;34.00;70.00
7143;DHT22;3613;48.902;9.204;2022-07-04T13:11:34;34.70;70.50
7143;DHT22;3613;48.902;9.204;2022-07-04T13:14:19;35.10;69.40
7143;DHT22;3613;48.902;9.204;2022-07-04T13:16:45;36.00;67.30
7143;DHT22;3613;48.902;9.204;2022-07-04T13:19:10;36.20;68.00
7143;DHT22;3613;48.902;9.204;2022-07-04T13:21:36;36.40;68.00
7143;DHT22;3613;48.902;9.204;2022-07-04T13:24:02;36.50;67.90
7143;DHT22;3613;48.902;9.204;2022-07-04T13:26:28;35.80;68.30
7143;DHT22;3613;48.902;9.204;2022-07-04T13:28:56;34.90;68.40
7143;DHT22;3613;48.902;9.204;2022-07-04T13:31:22;34.00;70.20
7143;DHT22;3613;48.902;9.204;2022-07-04T13:33:47;33.00;71.20
7143;DHT22;3613;48.902;9.204;2022-07-04T13:36:13;31.70;73.00
7143;DHT22;3613;48.902;9.204;2022-07-04T13:38:40;31.50;74.50
7143;DHT22;3613;48.902;9.204;2022-07-04T13:41:08;31.50;74.80
7143;DHT22;3613;48.902;9.204;2022-07-04T13:43:36;31.40;75.10
7143;DHT22;3613;48.902;9.204;2022-07-04T13:46:02;31.10;75.90
7143;DHT22;3613;48.902;9.204;2022-07-04T13:48:28;30.80;76.50
7143;DHT22;3613;48.902;9.204;2022-07-04T13:50:58;30.60;76.50
7143;DHT22;3613;48.902;9.204;2022-07-04T13:53:24;30.50;77.10
7143;DHT22;3613;48.902;9.204;2022-07-04T13:55:50;30.40;78.40
7143;DHT22;3613;48.902;9.204;2022-07-04T13:58:16;30.30;77.80
7143;DHT22;3613;48.902;9.204;2022-07-04T14:00:41;30.10;77.70
7143;DHT22;3613;48.902;9.204;2022-07-04T14:03:11;30.00;77.40
7143;DHT22;3613;48.902;9.204;2022-07-04T14:05:36;29.90;78.60
7143;DHT22;3613;48.902;9.204;2022-07-04T14:08:02;29.70;79.70
7143;DHT22;3613;48.902;9.204;2022-07-04T14:10:28;29.40;80.30
7143;DHT22;3613;48.902;9.204;2022-07-04T14:12:54;29.00;81.20
7143;DHT22;3613;48.902;9.204;2022-07-04T14:15:19;28.90;82.00
7143;DHT22;3613;48.902;9.204;2022-07-04T14:17:45;29.00;81.40
7143;DHT22;3613;48.902;9.204;2022-07-04T14:20:13;29.10;80.30
7143;DHT22;3613;48.902;9.204;2022-07-04T14:22:39;29.30;79.30
7143;DHT22;3613;48.902;9.204;2022-07-04T14:25:08;29.40;79.80
7143;DHT22;3613;48.902;9.204;2022-07-04T14:27:34;29.50;81.10
7143;DHT22;3613;48.902;9.204;2022-07-04T14:29:59;29.50;80.70
7143;DHT22;3613;48.902;9.204;2022-07-04T14:32:26;29.20;80.20
7143;DHT22;3613;48.902;9.204;2022-07-04T14:34:52;28.80;80.80
7143;DHT22;3613;48.902;9.204;2022-07-04T14:37:18;28.40;82.90
7143;DHT22;3613;48.902;9.204;2022-07-04T14:39:44;28.00;84.20
7143;DHT22;3613;48.902;9.204;2022-07-04T14:42:09;27.80;83.70
7143;DHT22;3613;48.902;9.204;2022-07-04T14:44:35;27.80;85.00
7143;DHT22;3613;48.902;9.204;2022-07-04T14:47:07;28.00;87.20
7143;DHT22;3613;48.902;9.204;2022-07-04T14:49:33;28.10;84.50
7143;DHT22;3613;48.902;9.204;2022-07-04T14:52:04;28.20;83.80
7143;DHT22;3613;48.902;9.204;2022-07-04T14:54:29;28.20;84.10
7143;DHT22;3613;48.902;9.204;2022-07-04T14:56:55;27.90;85.50
7143;DHT22;3613;48.902;9.204;2022-07-04T14:59:23;28.00;86.20
7143;DHT22;3613;48.902;9.204;2022-07-04T15:01:49;28.50;86.30
7143;DHT22;3613;48.902;9.204;2022-07-04T15:04:15;28.70;84.70
7143;DHT22;3613;48.902;9.204;2022-07-04T15:06:41;28.60;84.60
7143;DHT22;3613;48.902;9.204;2022-07-04T15:09:06;28.50;85.00
7143;DHT22;3613;48.902;9.204;2022-07-04T15:11:32;28.50;85.30
7143;DHT22;3613;48.902;9.204;2022-07-04T15:13:58;28.30;85.30
7143;DHT22;3613;48.902;9.204;2022-07-04T15:16:27;28.00;84.00
7143;DHT22;3613;48.902;9.204;2022-07-04T15:18:53;27.80;85.90
7143;DHT22;3613;48.902;9.204;2022-07-04T15:21:21;27.50;85.80
7143;DHT22;3613;48.902;9.204;2022-07-04T15:24:06;27.20;85.40
7143;DHT22;3613;48.902;9.204;2022-07-04T15:26:45;26.80;85.70
7143;DHT22;3613;48.902;9.204;2022-07-04T15:29:11;26.70;86.50
7143;DHT22;3613;48.902;9.204;2022-07-04T15:31:43;26.60;86.10
7143;DHT22;3613;48.902;9.204;2022-07-04T15:34:10;26.60;86.80
7143;DHT22;3613;48.902;9.204;2022-07-04T15:36:36;26.70;84.30
7143;DHT22;3613;48.902;9.204;2022-07-04T15:39:10;26.60;82.10
7143;DHT22;3613;48.902;9.204;2022-07-04T15:41:37;26.60;81.30
7143;DHT22;3613;48.902;9.204;2022-07-04T15:44:03;26.80;82.10
7143;DHT22;3613;48.902;9.204;2022-07-04T15:46:30;27.00;80.30
7143;DHT22;3613;48.902;9.204;2022-07-04T15:48:55;27.20;80.70
7143;DHT22;3613;48.902;9.204;2022-07-04T15:51:23;27.00;79.20
7143;DHT22;3613;48.902;9.204;2022-07-04T15:53:49;27.00;79.70
7143;DHT22;3613;48.902;9.204;2022-07-04T15:56:15;27.10;79.70
7143;DHT22;3613;48.902;9.204;2022-07-04T15:58:45;27.20;79.50
7143;DHT22;3613;48.902;9.204;2022-07-04T16:01:13;27.30;78.20
7143;DHT22;3613;48.902;9.204;2022-07-04T16:03:38;27.50;78.70
7143;DHT22;3613;48.902;9.204;2022-07-04T16:06:04;27.30;76.70
7143;DHT22;3613;48.902;9.204;2022-07-04T16:08:30;27.20;76.60
7143;DHT22;3613;48.902;9.204;2022-07-04T16:10:55;27.20;74.70
7143;DHT22;3613;48.902;9.204;2022-07-04T16:13:21;27.20;76.60
7143;DHT22;3613;48.902;9.204;2022-07-04T16:15:49;27.10;74.50
7143;DHT22;3613;48.902;9.204;2022-07-04T16:18:17;26.80;75.10
7143;DHT22;3613;48.902;9.204;2022-07-04T16:20:42;26.70;75.10
7143;DHT22;3613;48.902;9.204;2022-07-04T16:23:08;26.60;75.70
7143;DHT22;3613;48.902;9.204;2022-07-04T16:25:33;26.60;75.70
7143;DHT22;3613;48.902;9.204;2022-07-04T16:27:59;26.50;75.80
7143;DHT22;3613;48.902;9.204;2022-07-04T16:30:27;26.50;74.90
7143;DHT22;3613;48.902;9.204;2022-07-04T16:32:53;26.50;74.10
7143;DHT22;3613;48.902;9.204;2022-07-04T16:35:18;26.70;75.00
7143;DHT22;3613;48.902;9.204;2022-07-04T16:37:44;26.80;74.10
7143;DHT22;3613;48.902;9.204;2022-07-04T16:40:10;26.90;73.70